Morrill, Kansas
Current Conditions -  °F | °C
As of 6:53 PM on Wednesday 22 Oct 2014 (Local Time) from KFNB Reporting Station
Light Rain Light Rain  
Wind Chill: 68°   Ceiling: Unl
Heat Index: 68°   Visibility: 10mi
Dew Point: 56°   Wind: 9mph
Humidity: 65%   Direction: 140°SE
Pressure: 30.04"   Gusts: NA
Location:  39.93°N, 95.69°W
Report Text: KFNB 222353Z AUTO 14008KT 10SM -RA CLR 20/13 A3004 RMK AO2 SLP169 P0000 60000 T02000133 10250 20200 53001
Loading
Personal Weather Stations






























Interactive Weather Map
Tropical Storm Tracking
New forecast layout! Learn more

10-Day Weather Forecast

Advertisements
Track Severe Weather on mobile